Time;durP1;ratioP1;P1;durP2;ratioP2;P2;SDS_P1;SDS_P2;PMS_P1;PMS_P2;Temp;Humidity;BMP_temperature;BMP_pressure;BME280_temperature;BME280_humidity;BME280_pressure;Samples;Min_cycle;Max_cycle;Signal;HPM_P1;HPM_P2
2023/08/21 00:01:06;;;;;;;3.90;1.70;;;;;;;21.65;69.20;102439.19;5051990;28;20047;-46
2023/08/21 00:03:31;;;;;;;3.25;1.48;;;;;;;21.69;69.16;102438.28;5050358;28;20039;-44
2023/08/21 00:05:57;;;;;;;4.65;1.50;;;;;;;21.70;69.02;102428.56;5050532;28;20033;-49
2023/08/21 00:08:23;;;;;;;3.67;1.30;;;;;;;21.74;69.02;102433.81;5050901;28;20033;-45
2023/08/21 00:10:49;;;;;;;4.15;1.50;;;;;;;21.74;69.08;102431.16;5050873;28;20033;-43
2023/08/21 00:13:14;;;;;;;4.05;1.50;;;;;;;21.72;68.97;102438.25;5049634;28;20033;-44
2023/08/21 00:15:39;;;;;;;3.42;1.60;;;;;;;21.71;68.68;102440.94;5050571;28;20037;-45
2023/08/21 00:18:05;;;;;;;4.63;1.50;;;;;;;21.71;68.53;102441.78;5050889;28;20158;-47
2023/08/21 00:20:31;;;;;;;3.65;1.60;;;;;;;21.66;68.88;102445.38;5049726;28;20071;-47
2023/08/21 00:22:56;;;;;;;3.85;1.58;;;;;;;21.57;68.90;102450.75;5050524;28;20499;-48
2023/08/21 00:25:22;;;;;;;3.53;1.42;;;;;;;21.58;68.92;102445.47;5048914;28;20089;-47
2023/08/21 00:27:48;;;;;;;4.03;1.58;;;;;;;21.62;68.87;102441.88;5049709;28;20087;-48
2023/08/21 00:30:16;;;;;;;3.78;1.60;;;;;;;21.59;69.39;102446.34;5049260;28;20529;-45
2023/08/21 00:32:41;;;;;;;4.72;1.55;;;;;;;21.58;69.23;102434.84;5049839;28;20037;-43
2023/08/21 00:35:07;;;;;;;3.58;1.60;;;;;;;21.57;69.04;102438.38;5049105;28;20041;-48
2023/08/21 00:37:32;;;;;;;4.82;1.45;;;;;;;21.55;69.40;102429.53;5049545;28;20033;-45
2023/08/21 00:39:58;;;;;;;4.57;1.73;;;;;;;21.52;69.89;102431.34;5050262;28;20195;-47
2023/08/21 00:42:23;;;;;;;4.22;1.40;;;;;;;21.50;69.22;102430.47;5049328;28;20447;-47
2023/08/21 00:44:48;;;;;;;3.50;1.50;;;;;;;21.47;69.46;102425.19;5049348;28;20065;-45
2023/08/21 00:47:14;;;;;;;4.15;1.70;;;;;;;21.45;69.14;102422.53;5049332;28;20075;-43
2023/08/21 00:49:40;;;;;;;3.47;1.45;;;;;;;21.35;69.80;102427.00;5049111;28;20086;-46
2023/08/21 00:52:09;;;;;;;4.60;1.60;;;;;;;21.37;70.10;102425.25;5049327;28;20036;-48
2023/08/21 00:54:34;;;;;;;4.85;1.60;;;;;;;21.27;70.50;102427.97;5048421;28;20033;-45
2023/08/21 00:57:01;;;;;;;4.25;1.48;;;;;;;21.28;70.90;102424.44;5049459;28;20047;-46
2023/08/21 00:59:26;;;;;;;4.93;1.65;;;;;;;21.34;70.30;102432.34;5049061;28;20033;-45
2023/08/21 01:01:51;;;;;;;3.00;1.40;;;;;;;21.34;70.18;102433.25;5049553;28;20033;-45
2023/08/21 01:04:17;;;;;;;5.13;1.63;;;;;;;21.39;69.97;102430.53;5048418;28;20403;-48
2023/08/21 01:06:42;;;;;;;2.95;1.30;;;;;;;21.42;69.60;102431.41;5047835;28;20399;-45
2023/08/21 01:09:16;;;;;;;3.40;1.45;;;;;;;21.36;69.76;102434.09;5047978;28;20056;-44
2023/08/21 01:11:42;;;;;;;3.17;1.40;;;;;;;21.32;70.02;102434.13;5048610;28;20120;-47
2023/08/21 01:14:26;;;;;;;5.28;1.73;;;;;;;21.30;70.07;102430.59;5051588;28;20060;-42
2023/08/21 01:16:55;;;;;;;4.25;1.55;;;;;;;21.28;69.93;102430.63;5055410;28;20033;-43
2023/08/21 01:19:43;;;;;;;4.47;1.58;;;;;;;21.21;70.41;102438.63;5055062;28;20411;-46
2023/08/21 01:22:08;;;;;;;3.20;1.42;;;;;;;21.20;70.30;102437.75;5049662;28;20033;-46
2023/08/21 01:24:34;;;;;;;4.03;1.58;;;;;;;21.24;70.41;102439.47;5047943;28;20025;-45
2023/08/21 01:27:00;;;;;;;3.63;1.52;;;;;;;21.29;70.30;102436.78;5049124;28;20043;-45
2023/08/21 01:29:25;;;;;;;4.25;1.38;;;;;;;21.29;70.44;102436.78;5048287;28;20041;-48
2023/08/21 01:32:01;;;;;;;3.42;1.42;;;;;;;21.29;70.18;102439.44;5049114;28;20076;-45
2023/08/21 01:34:29;;;;;;;4.93;1.70;;;;;;;21.26;70.43;102434.16;5048223;28;20119;-45
2023/08/21 01:36:55;;;;;;;4.15;1.50;;;;;;;21.29;70.32;102435.00;5049154;28;20136;-47
2023/08/21 01:39:21;;;;;;;3.20;1.42;;;;;;;21.33;70.43;102438.53;5048539;28;20041;-44
2023/08/21 01:41:46;;;;;;;5.07;1.30;;;;;;;21.26;70.59;102444.78;5047462;28;20091;-47
2023/08/21 01:44:11;;;;;;;3.55;1.30;;;;;;;21.24;70.86;102436.81;5047885;28;20033;-45
2023/08/21 01:46:37;;;;;;;3.20;1.40;;;;;;;21.31;70.26;102440.31;5048695;28;20040;-45
2023/08/21 01:49:02;;;;;;;3.10;1.60;;;;;;;21.08;71.17;102440.44;5048857;28;20094;-47
2023/08/21 01:51:27;;;;;;;4.13;1.50;;;;;;;20.93;71.49;102446.66;5048587;28;20407;-44
2023/08/21 01:53:52;;;;;;;6.45;1.60;;;;;;;21.00;71.24;102443.09;5049081;28;20554;-45
2023/08/21 01:56:18;;;;;;;5.32;1.50;;;;;;;21.05;71.06;102440.41;5048041;28;20041;-43
2023/08/21 01:58:43;;;;;;;4.38;1.40;;;;;;;21.05;70.72;102438.66;5049107;28;20029;-42
2023/08/21 02:01:08;;;;;;;2.55;1.35;;;;;;;21.04;70.84;102438.69;5049022;28;20450;-44
2023/08/21 02:03:34;;;;;;;3.42;1.45;;;;;;;21.07;70.60;102443.97;5048282;28;20538;-43
2023/08/21 02:05:59;;;;;;;3.50;1.38;;;;;;;21.09;70.74;102441.31;5048346;28;20410;-43
2023/08/21 02:08:31;;;;;;;4.78;1.45;;;;;;;21.11;70.66;102443.03;5048214;28;20456;-45
2023/08/21 02:10:56;;;;;;;2.67;1.40;;;;;;;21.06;70.84;102437.78;5048497;28;20490;-42
2023/08/21 02:13:22;;;;;;;3.67;1.40;;;;;;;21.10;70.58;102435.13;5048442;28;20037;-45
2023/08/21 02:15:47;;;;;;;4.68;1.45;;;;;;;20.84;71.68;102441.41;5048065;28;20043;-47
2023/08/21 02:18:12;;;;;;;5.45;1.55;;;;;;;20.81;71.68;102440.53;5048551;28;20120;-45
2023/08/21 02:20:38;;;;;;;3.55;1.38;;;;;;;20.89;71.29;102441.41;5048552;28;20113;-44
2023/08/21 02:23:03;;;;;;;3.58;1.40;;;;;;;20.90;70.94;102441.41;5048746;28;20045;-44
2023/08/21 02:25:30;;;;;;;5.07;1.67;;;;;;;20.88;70.95;102444.94;5047639;28;20033;-46
2023/08/21 02:27:55;;;;;;;6.68;1.63;;;;;;;20.80;71.37;102444.94;5049106;28;20415;-44
2023/08/21 02:30:24;;;;;;;3.75;1.48;;;;;;;20.82;71.30;102437.88;5048377;28;20033;-45
2023/08/21 02:32:50;;;;;;;4.07;1.50;;;;;;;20.79;71.09;102439.69;5048883;28;20491;-47
2023/08/21 02:35:16;;;;;;;3.17;1.55;;;;;;;20.75;70.86;102444.09;5047508;28;20044;-44
2023/08/21 02:37:41;;;;;;;2.83;1.40;;;;;;;20.74;71.23;102436.16;5052135;28;20037;-48
2023/08/21 02:40:10;;;;;;;2.75;1.60;;;;;;;20.68;71.30;102439.69;5052112;28;20048;-43
2023/08/21 02:42:36;;;;;;;6.60;1.40;;;;;;;20.61;71.63;102432.69;5051815;28;20491;-44
2023/08/21 02:45:03;;;;;;;3.38;1.33;;;;;;;20.64;71.30;102443.25;5051576;28;20036;-48
2023/08/21 02:47:29;;;;;;;3.53;1.40;;;;;;;20.61;71.71;102443.28;5051485;28;20060;-48
2023/08/21 02:49:55;;;;;;;3.88;1.38;;;;;;;20.62;71.10;102439.72;5051863;28;20033;-48
2023/08/21 02:52:20;;;;;;;4.03;1.40;;;;;;;20.59;71.41;102439.75;5051731;28;20033;-43
2023/08/21 02:54:45;;;;;;;2.92;1.45;;;;;;;20.60;71.16;102437.09;5052573;28;20124;-45
2023/08/21 02:57:11;;;;;;;3.05;1.50;;;;;;;20.55;71.29;102440.66;5052113;28;20060;-46
2023/08/21 02:59:36;;;;;;;2.78;1.55;;;;;;;20.53;71.43;102434.47;5051436;28;20040;-45
2023/08/21 03:02:01;;;;;;;4.97;1.67;;;;;;;20.50;71.55;102442.41;5051804;28;20065;-48
2023/08/21 03:04:27;;;;;;;3.88;1.60;;;;;;;20.34;72.54;102433.63;5050584;28;20044;-47
2023/08/21 03:06:52;;;;;;;5.72;1.70;;;;;;;20.40;72.43;102441.56;5051458;28;20037;-44
2023/08/21 03:09:17;;;;;;;3.75;1.40;;;;;;;20.43;72.26;102433.59;5051113;28;20070;-45
2023/08/21 03:11:43;;;;;;;3.90;1.40;;;;;;;20.39;72.20;102431.84;5051438;28;20033;-43
2023/08/21 03:14:08;;;;;;;2.60;1.60;;;;;;;20.42;72.22;102428.31;5051082;28;20083;-44
2023/08/21 03:16:33;;;;;;;3.60;1.70;;;;;;;20.45;72.11;102426.53;5051094;28;20033;-45
2023/08/21 03:19:00;;;;;;;5.90;1.80;;;;;;;20.39;72.28;102423.91;5051624;28;20040;-45
2023/08/21 03:21:26;;;;;;;5.75;1.60;;;;;;;20.37;72.45;102428.31;5050712;28;20057;-43
2023/08/21 03:23:57;;;;;;;4.53;1.60;;;;;;;20.37;72.29;102419.50;5051276;28;20063;-43
2023/08/21 03:26:23;;;;;;;3.95;1.60;;;;;;;20.36;72.32;102425.69;5050877;28;20483;-46
2023/08/21 03:28:49;;;;;;;4.70;1.70;;;;;;;20.35;72.03;102419.50;5051363;28;20045;-45
2023/08/21 03:31:15;;;;;;;3.50;1.90;;;;;;;20.21;73.05;102424.78;5050841;28;20043;-43
2023/08/21 03:33:40;;;;;;;4.45;1.70;;;;;;;20.20;73.12;102424.78;5051160;28;20035;-44
2023/08/21 03:36:06;;;;;;;6.78;1.90;;;;;;;20.30;72.54;102418.59;5050688;28;20431;-45
2023/08/21 03:38:31;;;;;;;3.80;1.65;;;;;;;20.24;72.87;102424.78;5050321;28;20033;-43
2023/08/21 03:40:56;;;;;;;5.30;1.80;;;;;;;20.21;73.03;102418.59;5051065;28;20036;-43
2023/08/21 03:43:21;;;;;;;3.28;1.73;;;;;;;20.16;73.47;102439.81;5050490;28;20037;-49
2023/08/21 03:45:47;;;;;;;5.13;1.80;;;;;;;20.20;72.91;102427.44;5050411;28;20033;-43
2023/08/21 03:48:13;;;;;;;4.53;1.70;;;;;;;20.21;72.62;102429.19;5050325;28;20495;-45
2023/08/21 03:50:39;;;;;;;5.10;1.67;;;;;;;20.18;72.66;102419.50;5049344;28;20392;-44
2023/08/21 03:53:04;;;;;;;3.15;1.70;;;;;;;20.21;72.81;102429.19;5050829;28;20033;-48
2023/08/21 03:55:30;;;;;;;2.95;1.60;;;;;;;20.13;72.91;102425.66;5049605;28;20040;-44
2023/08/21 03:57:55;;;;;;;4.15;1.80;;;;;;;20.11;73.16;102432.75;5050518;28;20036;-43
2023/08/21 04:00:20;;;;;;;4.35;1.70;;;;;;;20.10;72.98;102429.22;5051027;28;20470;-45
2023/08/21 04:02:46;;;;;;;4.15;1.90;;;;;;;20.10;73.12;102428.34;5052748;28;20040;-44
2023/08/21 04:05:11;;;;;;;5.15;1.80;;;;;;;20.06;73.03;102423.94;5051314;28;20029;-45
2023/08/21 04:07:37;;;;;;;3.45;1.58;;;;;;;20.08;72.97;102423.03;5050224;28;20355;-48
2023/08/21 04:10:02;;;;;;;3.75;1.77;;;;;;;20.03;73.21;102432.75;5050246;28;20163;-44
2023/08/21 04:12:28;;;;;;;3.75;1.77;;;;;;;20.07;72.73;102425.69;5049913;28;20033;-43
2023/08/21 04:14:53;;;;;;;4.28;1.80;;;;;;;20.00;73.20;102427.47;5049519;28;20040;-43
2023/08/21 04:17:22;;;;;;;3.50;1.88;;;;;;;20.00;73.14;102427.47;5049776;28;20044;-44
2023/08/21 04:19:48;;;;;;;2.90;1.70;;;;;;;19.99;73.06;102428.34;5050270;28;20242;-45
2023/08/21 04:22:13;;;;;;;4.53;1.80;;;;;;;19.99;73.19;102430.13;5049837;28;20120;-49
2023/08/21 04:24:40;;;;;;;3.10;1.70;;;;;;;20.01;73.47;102428.34;5049649;28;20033;-47
2023/08/21 04:27:05;;;;;;;4.35;1.75;;;;;;;20.00;73.48;102434.53;5050261;28;20029;-42
2023/08/21 04:29:30;;;;;;;4.43;1.83;;;;;;;19.99;73.46;102438.06;5049467;28;20091;-45
2023/08/21 04:31:56;;;;;;;5.07;1.92;;;;;;;19.98;73.54;102433.66;5049984;28;20522;-47
2023/08/21 04:34:21;;;;;;;4.10;1.80;;;;;;;19.99;73.48;102436.31;5049064;28;20036;-43
2023/08/21 04:36:46;;;;;;;4.85;1.85;;;;;;;20.01;73.39;102433.63;5049740;28;20040;-43
2023/08/21 04:39:12;;;;;;;4.07;1.90;;;;;;;19.99;73.42;102435.41;5049383;28;20040;-43
2023/08/21 04:41:39;;;;;;;7.93;2.25;;;;;;;19.94;73.78;102437.19;5050274;28;20318;-43
2023/08/21 04:44:05;;;;;;;4.60;2.03;;;;;;;19.97;73.68;102439.81;5049378;28;20110;-44
2023/08/21 04:46:30;;;;;;;4.40;2.13;;;;;;;19.90;74.23;102441.59;5049685;28;20123;-45
2023/08/21 04:48:55;;;;;;;4.57;1.90;;;;;;;19.95;74.10;102441.56;5049709;28;20503;-43
2023/08/21 04:51:21;;;;;;;5.70;2.10;;;;;;;19.96;74.33;102438.03;5049087;28;20186;-50
2023/08/21 04:53:46;;;;;;;5.07;2.10;;;;;;;20.02;74.05;102446.00;5049546;28;20395;-43
2023/08/21 04:56:11;;;;;;;8.00;2.08;;;;;;;20.07;73.78;102453.03;5048663;28;20037;-44
2023/08/21 04:58:37;;;;;;;5.07;2.00;;;;;;;20.09;73.88;102453.94;5049362;28;20133;-48
2023/08/21 05:01:04;;;;;;;5.25;2.10;;;;;;;20.14;73.85;102454.81;5049213;28;20089;-43
2023/08/21 05:03:30;;;;;;;4.72;1.98;;;;;;;20.12;74.12;102453.94;5049071;28;20415;-43
2023/08/21 05:05:56;;;;;;;5.82;2.30;;;;;;;20.13;74.12;102444.22;5048904;28;20037;-46
2023/08/21 05:08:23;;;;;;;5.90;2.20;;;;;;;20.21;74.18;102453.03;5048915;28;20171;-48
2023/08/21 05:10:54;;;;;;;4.10;2.00;;;;;;;20.32;73.95;102447.72;5049012;28;20099;-44
2023/08/21 05:13:20;;;;;;;5.38;2.10;;;;;;;20.36;74.03;102447.75;5052910;28;20045;-48
2023/08/21 05:15:57;;;;;;;4.30;2.20;;;;;;;20.41;74.14;102439.78;5048447;28;20114;-45
2023/08/21 05:18:24;;;;;;;5.07;2.50;;;;;;;20.44;74.26;102445.94;5048990;28;20048;-49
2023/08/21 05:20:50;;;;;;;4.80;2.10;;;;;;;20.58;74.05;102449.47;5050343;28;20044;-46
2023/08/21 05:23:16;;;;;;;4.75;1.75;;;;;;;20.69;73.95;102452.06;5057982;28;20113;-46
2023/08/21 05:25:43;;;;;;;3.85;2.00;;;;;;;20.74;74.43;102457.38;5056428;28;20060;-44
2023/08/21 05:28:08;;;;;;;4.72;2.20;;;;;;;20.84;74.49;102459.09;5052250;28;20381;-48
2023/08/21 05:30:35;;;;;;;5.68;2.50;;;;;;;20.95;74.56;102458.16;5048934;28;20059;-43
2023/08/21 05:33:01;;;;;;;3.42;2.20;;;;;;;21.01;74.36;102459.91;5048775;28;20407;-47
2023/08/21 05:35:26;;;;;;;4.28;2.17;;;;;;;21.12;74.43;102452.75;5048629;28;20033;-46
2023/08/21 05:37:52;;;;;;;5.68;2.28;;;;;;;21.20;74.49;102460.72;5050823;28;20059;-43
2023/08/21 05:40:17;;;;;;;3.70;2.25;;;;;;;21.24;74.02;102455.38;5049658;28;20111;-47
2023/08/21 05:42:42;;;;;;;5.10;2.20;;;;;;;21.24;73.55;102457.16;5049053;28;20105;-43
2023/08/21 05:45:08;;;;;;;4.20;2.10;;;;;;;21.36;73.43;102455.31;5048624;28;20044;-43
2023/08/21 05:47:34;;;;;;;4.07;2.20;;;;;;;21.49;73.64;102461.44;5048537;28;20060;-50
2023/08/21 05:49:59;;;;;;;5.07;2.13;;;;;;;21.66;73.02;102461.31;5048714;28;20192;-45
2023/08/21 05:52:24;;;;;;;4.35;2.00;;;;;;;21.71;73.02;102455.06;5048733;28;20037;-44
2023/08/21 05:54:50;;;;;;;5.78;2.20;;;;;;;21.86;73.06;102454.06;5048540;28;20040;-45
2023/08/21 05:57:15;;;;;;;4.45;2.15;;;;;;;22.02;73.13;102453.06;5048577;28;20029;-44
2023/08/21 05:59:45;;;;;;;5.63;2.20;;;;;;;22.16;72.67;102456.50;5048848;28;20033;-45
2023/08/21 06:02:10;;;;;;;4.53;2.28;;;;;;;22.29;72.50;102456.38;5049264;28;20037;-44
2023/08/21 06:04:37;;;;;;;8.65;2.08;;;;;;;22.36;72.28;102456.31;5048518;28;20079;-48
2023/08/21 06:07:03;;;;;;;6.93;2.20;;;;;;;22.45;71.70;102457.97;5049275;28;20037;-47
2023/08/21 06:09:29;;;;;;;6.60;2.30;;;;;;;22.55;71.68;102454.31;5048512;28;20388;-48
2023/08/21 06:11:55;;;;;;;6.32;2.20;;;;;;;22.66;71.41;102463.06;5051017;28;20100;-48
2023/08/21 06:14:28;;;;;;;6.70;2.17;;;;;;;22.67;71.07;102457.72;5051634;28;20124;-44
2023/08/21 06:16:53;;;;;;;6.60;2.30;;;;;;;22.80;71.28;102458.50;5052594;28;20040;-44
2023/08/21 06:19:19;;;;;;;4.65;2.08;;;;;;;22.95;72.18;102465.38;5052106;28;20029;-47
2023/08/21 06:21:44;;;;;;;6.05;2.40;;;;;;;23.70;71.26;102473.22;5052507;28;20082;-44
2023/08/21 06:24:09;;;;;;;7.35;2.45;;;;;;;25.28;66.82;102462.25;5051767;28;20061;-45
2023/08/21 06:26:35;;;;;;;7.57;2.72;;;;;;;26.55;57.30;102464.41;5052207;28;20611;-44
2023/08/21 06:29:00;;;;;;;6.90;2.78;;;;;;;27.66;54.65;102463.75;5052454;28;20455;-46
2023/08/21 06:31:25;;;;;;;10.07;2.80;;;;;;;28.53;51.72;102455.41;5051537;28;20512;-48
2023/08/21 06:33:51;;;;;;;8.23;2.88;;;;;;;28.27;52.34;102459.00;5052293;28;20193;-48
2023/08/21 06:36:16;;;;;;;8.05;2.50;;;;;;;27.72;54.03;102471.59;5050193;28;20131;-45
2023/08/21 06:38:41;;;;;;;8.25;2.63;;;;;;;28.02;53.59;102463.44;5052513;28;20083;-46
2023/08/21 06:41:07;;;;;;;10.85;2.67;;;;;;;28.11;54.12;102471.19;5052339;28;20029;-45
2023/08/21 06:43:32;;;;;;;8.07;2.53;;;;;;;28.67;52.07;102466.47;5050711;28;20094;-50
2023/08/21 06:45:57;;;;;;;8.90;2.65;;;;;;;28.95;51.46;102459.19;5050640;28;20044;-44
2023/08/21 06:48:23;;;;;;;9.35;2.80;;;;;;;29.13;50.61;102473.72;5051627;28;20063;-49
2023/08/21 06:50:48;;;;;;;7.55;2.65;;;;;;;29.76;47.27;102466.72;5051797;28;20504;-47
2023/08/21 06:53:13;;;;;;;10.20;2.70;;;;;;;29.45;48.70;102467.13;5051624;28;20064;-45
2023/08/21 06:55:39;;;;;;;9.77;2.67;;;;;;;29.22;50.63;102462.59;5051472;28;20029;-45
2023/08/21 06:58:04;;;;;;;7.25;2.60;;;;;;;30.13;46.71;102468.78;5051873;28;20049;-45
2023/08/21 07:00:29;;;;;;;8.50;2.88;;;;;;;29.68;47.95;102466.16;5051571;28;20507;-46
2023/08/21 07:02:55;;;;;;;11.77;2.88;;;;;;;29.15;50.12;102471.88;5051795;28;20356;-48
2023/08/21 07:05:20;;;;;;;13.23;3.25;;;;;;;29.92;48.56;102472.38;5050876;28;20110;-45
2023/08/21 07:07:45;;;;;;;6.80;2.50;;;;;;;30.28;46.60;102467.22;5051871;28;20048;-44
2023/08/21 07:10:11;;;;;;;10.00;2.88;;;;;;;30.48;46.28;102469.91;5051718;28;20033;-51
2023/08/21 07:12:37;;;;;;;6.60;2.53;;;;;;;29.29;49.83;102473.97;5052302;28;20041;-42
2023/08/21 07:15:02;;;;;;;11.57;3.38;;;;;;;28.62;51.72;102473.84;5051877;28;20036;-44
2023/08/21 07:17:27;;;;;;;7.82;2.60;;;;;;;28.09;53.37;102476.59;5051534;28;20045;-47
2023/08/21 07:19:53;;;;;;;9.43;2.67;;;;;;;28.71;51.49;102475.31;5051087;28;20036;-43
2023/08/21 07:22:19;;;;;;;9.13;2.88;;;;;;;29.19;51.01;102473.47;5050824;28;20036;-44
2023/08/21 07:24:44;;;;;;;11.00;3.10;;;;;;;29.88;48.06;102478.78;5051724;28;20039;-44
2023/08/21 07:27:10;;;;;;;9.45;2.97;;;;;;;29.99;48.50;102472.03;5051294;28;20165;-47
2023/08/21 07:29:35;;;;;;;8.18;3.00;;;;;;;30.47;46.82;102479.78;5050375;28;20044;-46
2023/08/21 07:32:01;;;;;;;10.30;3.13;;;;;;;30.66;46.59;102479.88;5050590;28;20039;-48
2023/08/21 07:34:26;;;;;;;9.55;2.80;;;;;;;30.49;46.91;102479.75;5049486;28;20579;-49
2023/08/21 07:36:52;;;;;;;11.07;3.03;;;;;;;30.07;48.26;102487.88;5048994;28;20041;-43
2023/08/21 07:39:17;;;;;;;13.68;3.33;;;;;;;29.02;50.26;102490.25;5049143;28;20040;-46
2023/08/21 07:41:42;;;;;;;11.43;3.60;;;;;;;28.69;52.44;102490.59;5050611;28;20112;-46
2023/08/21 07:44:08;;;;;;;15.13;3.53;;;;;;;29.12;51.15;102487.19;5050103;28;20124;-45
2023/08/21 07:46:33;;;;;;;13.88;3.47;;;;;;;28.91;51.41;102483.53;5050509;28;20137;-45
2023/08/21 07:48:59;;;;;;;10.10;3.40;;;;;;;28.79;51.77;102490.22;5050699;28;20120;-50
2023/08/21 07:51:24;;;;;;;9.80;3.67;;;;;;;28.75;52.11;102499.34;5050052;28;20036;-48
2023/08/21 07:53:49;;;;;;;10.32;3.70;;;;;;;28.30;53.80;102500.97;5050721;28;20040;-47
2023/08/21 07:56:14;;;;;;;10.68;3.25;;;;;;;29.31;51.69;102507.94;5049550;28;20037;-43
2023/08/21 07:58:40;;;;;;;10.00;3.28;;;;;;;28.69;52.62;102498.66;5050336;28;20041;-43
2023/08/21 08:01:05;;;;;;;12.52;3.80;;;;;;;28.12;54.52;102499.72;5050398;28;20167;-50
2023/08/21 08:03:31;;;;;;;11.77;3.15;;;;;;;28.47;54.44;102499.44;5049855;28;20060;-45
2023/08/21 08:05:57;;;;;;;11.95;3.65;;;;;;;28.58;52.01;102497.25;5049741;28;20032;-45
2023/08/21 08:08:22;;;;;;;14.10;3.17;;;;;;;28.52;52.33;102502.81;5049717;28;20045;-47
2023/08/21 08:10:47;;;;;;;10.25;3.10;;;;;;;28.82;53.12;102498.19;5050215;28;20060;-43
2023/08/21 08:13:13;;;;;;;10.88;3.10;;;;;;;28.92;51.80;102494.19;5049896;28;20033;-48
2023/08/21 08:15:38;;;;;;;9.77;2.85;;;;;;;28.84;51.78;102495.44;5047666;28;20441;-47
2023/08/21 08:18:04;;;;;;;11.70;3.55;;;;;;;28.43;52.53;102497.78;5050569;28;20124;-42
2023/08/21 08:20:29;;;;;;;12.65;3.50;;;;;;;27.57;56.30;102506.91;5049189;28;20116;-43
2023/08/21 08:22:56;;;;;;;9.32;3.78;;;;;;;27.73;56.69;102501.94;5050064;28;20041;-47
2023/08/21 08:25:21;;;;;;;10.30;2.90;;;;;;;27.71;56.11;102511.84;5049329;28;20033;-45
2023/08/21 08:27:47;;;;;;;10.52;3.17;;;;;;;27.44;57.31;102506.41;5050026;28;20047;-44
2023/08/21 08:30:13;;;;;;;12.23;2.90;;;;;;;27.28;57.50;102502.44;5049632;28;20127;-46
2023/08/21 08:32:40;;;;;;;7.25;2.60;;;;;;;26.71;58.82;102505.00;5049272;28;20642;-44
2023/08/21 08:35:07;;;;;;;8.77;2.50;;;;;;;27.53;57.34;102499.91;5038911;28;20124;-45
2023/08/21 08:37:32;;;;;;;7.78;2.53;;;;;;;27.66;54.80;102487.88;5048969;28;20491;-46
2023/08/21 08:39:57;;;;;;;6.47;2.30;;;;;;;27.41;55.60;102497.56;5049344;28;20051;-46
2023/08/21 08:42:23;;;;;;;8.13;2.40;;;;;;;27.53;56.55;102496.34;5048963;28;20043;-49
2023/08/21 08:44:49;;;;;;;10.63;2.55;;;;;;;27.32;57.40;102489.84;5048653;28;20091;-47
2023/08/21 08:47:17;;;;;;;9.82;2.58;;;;;;;26.86;59.05;102488.50;5048898;28;20076;-46
2023/08/21 08:49:42;;;;;;;13.63;2.53;;;;;;;27.10;58.71;102486.91;5047688;28;20029;-45
2023/08/21 08:52:08;;;;;;;8.27;2.15;;;;;;;27.18;56.09;102494.72;5049439;28;20060;-51
2023/08/21 08:54:35;;;;;;;9.18;2.58;;;;;;;27.46;54.71;102501.84;5048362;28;20028;-45
2023/08/21 08:57:01;;;;;;;6.80;2.10;;;;;;;27.77;54.65;102495.56;5049303;28;20048;-46
2023/08/21 08:59:30;;;;;;;10.27;2.35;;;;;;;27.51;53.85;102488.34;5048527;28;20181;-48
2023/08/21 09:01:55;;;;;;;6.20;2.03;;;;;;;27.66;54.15;102495.03;5049375;28;20044;-45
2023/08/21 09:04:21;;;;;;;7.55;2.30;;;;;;;27.49;54.26;102505.38;5048388;28;20068;-46
2023/08/21 09:06:46;;;;;;;7.28;1.90;;;;;;;27.99;52.91;102504.66;5049710;28;20247;-48
2023/08/21 09:09:12;;;;;;;11.57;2.20;;;;;;;27.17;55.63;102507.25;5048230;28;20495;-44
2023/08/21 09:11:43;;;;;;;8.52;2.25;;;;;;;27.36;54.92;102504.88;5049559;28;20029;-49
2023/08/21 09:14:10;;;;;;;9.40;2.03;;;;;;;27.34;53.23;102498.69;5048652;28;20128;-45
2023/08/21 09:16:35;;;;;;;5.38;1.90;;;;;;;27.45;53.21;102499.22;5049710;28;20122;-45
2023/08/21 09:19:00;;;;;;;4.45;1.88;;;;;;;27.49;52.12;102506.25;5052625;28;20033;-46
2023/08/21 09:21:28;;;;;;;5.88;2.17;;;;;;;27.95;51.97;102492.25;5052865;28;20119;-48
2023/08/21 09:24:04;;;;;;;7.65;2.00;;;;;;;28.54;49.57;102495.59;5049963;28;20040;-46
2023/08/21 09:26:34;;;;;;;11.23;2.10;;;;;;;27.62;53.35;102499.63;5049250;28;20115;-44
2023/08/21 09:29:04;;;;;;;9.30;1.92;;;;;;;27.68;51.37;102490.50;5048866;28;20040;-48
2023/08/21 09:31:32;;;;;;;7.88;2.03;;;;;;;28.31;49.67;102490.16;5040302;28;20038;-47
2023/08/21 09:34:00;;;;;;;6.90;1.92;;;;;;;28.41;49.44;102490.72;5039990;28;20041;-50
2023/08/21 09:36:26;;;;;;;5.70;2.05;;;;;;;28.84;49.13;102490.94;5038569;28;20132;-49
2023/08/21 09:38:52;;;;;;;9.10;1.73;;;;;;;28.28;49.20;102486.72;5037630;28;20140;-51
2023/08/21 09:41:21;;;;;;;8.10;1.80;;;;;;;27.85;49.67;102496.19;5037792;28;20037;-44
2023/08/21 09:43:46;;;;;;;5.13;1.60;;;;;;;27.63;50.65;102487.97;5040480;28;20482;-46
2023/08/21 09:46:26;;;;;;;7.43;1.83;;;;;;;27.55;49.92;102489.16;5042015;28;20120;-49
2023/08/21 09:48:53;;;;;;;5.70;1.52;;;;;;;27.65;50.36;102486.13;5040503;28;20041;-47
2023/08/21 09:51:18;;;;;;;7.97;2.30;;;;;;;28.27;49.17;102487.66;5041683;28;20194;-45
2023/08/21 09:53:45;;;;;;;5.88;1.80;;;;;;;27.49;49.62;102478.59;5044794;28;20127;-44
2023/08/21 09:56:12;;;;;;;5.97;1.70;;;;;;;28.27;47.46;102482.28;5043837;28;20041;-55
2023/08/21 09:58:38;;;;;;;6.88;1.70;;;;;;;28.22;48.76;102477.97;5041248;28;20123;-46
2023/08/21 10:01:14;;;;;;;5.57;1.48;;;;;;;27.51;49.88;102482.09;5040433;28;20160;-48
2023/08/21 10:03:47;;;;;;;6.85;1.50;;;;;;;27.86;49.89;102479.19;5053744;28;20036;-49
2023/08/21 10:06:18;;;;;;;5.47;1.50;;;;;;;27.84;47.73;102484.59;5053488;28;20025;-46
2023/08/21 10:08:46;;;;;;;6.38;1.58;;;;;;;27.74;48.43;102484.94;5054124;28;20036;-49
2023/08/21 10:11:11;;;;;;;6.72;1.65;;;;;;;26.98;49.80;102482.81;5053064;28;20076;-51
2023/08/21 10:13:38;;;;;;;4.85;1.70;;;;;;;27.29;49.07;102493.47;5052885;28;20032;-46
2023/08/21 10:16:05;;;;;;;5.13;1.63;;;;;;;27.34;49.53;102494.22;5051306;28;20033;-49
2023/08/21 10:18:35;;;;;;;5.45;1.65;;;;;;;27.48;48.39;102496.47;5051374;28;20687;-47
2023/08/21 10:21:21;;;;;;;7.43;1.80;;;;;;;27.29;49.76;102492.59;5051757;28;20041;-49
2023/08/21 10:23:48;;;;;;;5.15;1.60;;;;;;;27.26;48.71;102493.59;5040595;28;20037;-46
2023/08/21 10:26:14;;;;;;;5.85;1.80;;;;;;;27.29;48.12;102484.56;5040259;28;20415;-48
2023/08/21 10:28:51;;;;;;;6.95;1.80;;;;;;;27.33;49.29;102489.78;5043996;28;20033;-47
2023/08/21 10:31:32;;;;;;;5.75;1.40;;;;;;;27.90;47.70;102477.25;5042922;28;20388;-46
2023/08/21 10:33:59;;;;;;;4.38;1.30;;;;;;;27.75;46.36;102479.50;5040426;28;20091;-45
2023/08/21 10:36:42;;;;;;;5.38;1.20;;;;;;;27.37;47.84;102482.53;5041671;28;20540;-50
2023/08/21 10:39:17;;;;;;;3.47;1.30;;;;;;;28.18;44.36;102472.72;5044166;28;20037;-44
2023/08/21 10:41:57;;;;;;;5.10;1.40;;;;;;;27.57;47.88;102479.25;5042271;28;20499;-47
2023/08/21 10:44:51;;;;;;;4.55;1.30;;;;;;;27.41;47.05;102482.38;5041373;28;20047;-47
2023/08/21 10:47:28;;;;;;;3.28;1.33;;;;;;;27.77;43.08;102476.78;5040838;28;20109;-49
2023/08/21 10:49:56;;;;;;;3.90;1.50;;;;;;;27.71;45.31;102480.56;5044126;28;20563;-45
2023/08/21 10:52:35;;;;;;;4.38;1.23;;;;;;;28.13;42.84;102469.31;5041841;28;20037;-43
2023/08/21 10:55:03;;;;;;;3.85;1.35;;;;;;;27.89;46.40;102468.34;5039838;28;20042;-45
2023/08/21 10:57:30;;;;;;;2.95;1.40;;;;;;;28.38;43.04;102469.34;5041635;28;20072;-45
2023/08/21 10:59:58;;;;;;;5.43;1.40;;;;;;;28.71;44.44;102469.94;5043560;28;20091;-40
2023/08/21 11:02:26;;;;;;;3.90;1.40;;;;;;;28.21;46.68;102467.28;5041385;28;20033;-50
2023/08/21 11:04:52;;;;;;;3.03;1.33;;;;;;;28.14;46.55;102466.63;5039567;28;20037;-47
2023/08/21 11:07:18;;;;;;;4.68;1.05;;;;;;;27.93;42.09;102478.06;5040566;28;20037;-46
2023/08/21 11:09:44;;;;;;;4.20;1.23;;;;;;;28.53;40.88;102464.34;5039991;28;20139;-43
2023/08/21 11:12:12;;;;;;;2.97;1.05;;;;;;;28.76;41.51;102468.88;5043407;28;20403;-46
2023/08/21 11:14:39;;;;;;;3.50;1.40;;;;;;;28.20;45.19;102478.94;5042568;28;20037;-46
2023/08/21 11:17:05;;;;;;;4.97;1.30;;;;;;;28.77;43.19;102467.94;5043285;28;20040;-49
2023/08/21 11:19:31;;;;;;;5.20;1.45;;;;;;;28.88;44.04;102470.22;5040421;28;20045;-45
2023/08/21 11:22:00;;;;;;;3.90;1.50;;;;;;;28.22;46.13;102469.91;5039692;28;20044;-44